Time;durP1;ratioP1;P1;durP2;ratioP2;P2;SDS_P1;SDS_P2;PMS_P1;PMS_P2;Temp;Humidity;BMP_temperature;BMP_pressure;BME280_temperature;BME280_humidity;BME280_pressure;Samples;Min_cycle;Max_cycle;Signal;HPM_P1;HPM_P2
2022/07/30 00:02:04;;;;;;;4.20;2.47;;;21.10;99.90;;;;;;4958599;28;20090;-79
2022/07/30 00:04:31;;;;;;;4.50;2.17;;;21.00;99.90;;;;;;4958404;28;20086;-79
2022/07/30 00:07:00;;;;;;;6.50;2.30;;;21.10;99.90;;;;;;4939905;29;20075;-79
2022/07/30 00:09:25;;;;;;;6.20;2.45;;;21.00;99.90;;;;;;4953069;28;20019;-79
2022/07/30 00:11:51;;;;;;;8.90;2.67;;;21.00;99.90;;;;;;4956506;29;20038;-79
2022/07/30 00:14:17;;;;;;;5.82;2.50;;;21.00;99.90;;;;;;4956559;29;20031;-79
2022/07/30 00:16:43;;;;;;;4.40;2.05;;;21.00;99.90;;;;;;4956917;29;20031;-79
2022/07/30 00:19:10;;;;;;;5.57;2.00;;;21.10;99.90;;;;;;4939415;29;20043;-79
2022/07/30 00:21:35;;;;;;;5.03;2.42;;;21.00;99.90;;;;;;4936929;29;20091;-79
2022/07/30 00:24:01;;;;;;;4.55;2.10;;;21.00;99.90;;;;;;4936964;29;20051;-79
2022/07/30 00:26:27;;;;;;;4.57;2.17;;;21.00;99.90;;;;;;4936935;29;20032;-79
2022/07/30 00:28:52;;;;;;;4.32;2.20;;;21.00;99.90;;;;;;4935993;29;20030;-79
2022/07/30 00:31:18;;;;;;;6.10;2.20;;;20.90;99.90;;;;;;4936361;29;20036;-79
2022/07/30 00:33:43;;;;;;;6.25;2.40;;;21.10;99.90;;;;;;4936720;29;20063;-79
2022/07/30 00:36:09;;;;;;;7.15;2.42;;;21.00;99.90;;;;;;4936533;29;20063;-79
2022/07/30 00:38:35;;;;;;;10.25;2.17;;;21.00;99.90;;;;;;4937059;29;20107;-79
2022/07/30 00:41:00;;;;;;;4.65;2.25;;;21.00;99.90;;;;;;4937002;29;20063;-79
2022/07/30 00:43:26;;;;;;;9.80;2.40;;;21.00;99.90;;;;;;4936791;29;20028;-79
2022/07/30 00:45:52;;;;;;;5.22;1.98;;;21.10;99.90;;;;;;4936760;29;20504;-79
2022/07/30 00:48:17;;;;;;;4.63;2.22;;;21.00;99.90;;;;;;4949047;29;20031;-79
2022/07/30 00:50:43;;;;;;;4.82;2.03;;;21.00;99.90;;;;;;4955733;29;20027;-79
2022/07/30 00:53:08;;;;;;;3.60;2.20;;;20.90;99.90;;;;;;4968703;28;20398;-79
2022/07/30 00:55:34;;;;;;;5.28;2.08;;;21.00;99.90;;;;;;4962658;28;20023;-79
2022/07/30 00:58:00;;;;;;;5.38;1.98;;;20.90;99.90;;;;;;4936839;29;20027;-79
2022/07/30 01:00:27;;;;;;;4.72;2.35;;;20.90;99.90;;;;;;4936672;29;20076;-78
2022/07/30 01:02:53;;;;;;;5.70;2.35;;;20.90;99.90;;;;;;4936302;29;20058;-79
2022/07/30 01:05:19;;;;;;;7.28;2.20;;;20.90;99.90;;;;;;4953156;29;20028;-79
2022/07/30 01:07:45;;;;;;;7.35;2.28;;;21.00;99.90;;;;;;4955254;29;20403;-79
2022/07/30 01:10:13;;;;;;;6.35;2.13;;;20.90;99.90;;;;;;4950071;29;20031;-79
2022/07/30 01:12:39;;;;;;;4.63;2.15;;;20.90;99.90;;;;;;4936114;29;20503;-79
2022/07/30 01:15:07;;;;;;;4.63;2.10;;;20.90;99.90;;;;;;4936181;29;20102;-79
2022/07/30 01:17:33;;;;;;;4.45;2.28;;;20.90;99.90;;;;;;4935985;29;20024;-79
2022/07/30 01:20:17;;;;;;;7.40;2.28;;;21.00;99.90;;;;;;4936211;29;20032;-79
2022/07/30 01:23:05;;;;;;;6.72;2.10;;;20.80;99.90;;;;;;4935965;29;20431;-79
2022/07/30 01:25:30;;;;;;;6.43;2.38;;;20.80;99.90;;;;;;4918916;29;20023;-79
2022/07/30 01:27:59;;;;;;;5.03;2.00;;;20.80;99.90;;;;;;4935826;29;20130;-79
2022/07/30 01:30:28;;;;;;;5.55;2.20;;;20.80;99.90;;;;;;4936310;29;20035;-79
2022/07/30 01:32:56;;;;;;;5.65;1.95;;;20.70;99.90;;;;;;4935539;29;20028;-79
2022/07/30 01:35:24;;;;;;;3.67;1.95;;;20.70;99.90;;;;;;4935843;29;20023;-79
2022/07/30 01:37:52;;;;;;;4.45;2.00;;;20.80;99.90;;;;;;4935940;29;20452;-79
2022/07/30 01:40:18;;;;;;;7.30;2.05;;;20.80;99.90;;;;;;4935478;29;20027;-79
2022/07/30 01:42:48;;;;;;;6.30;1.95;;;20.70;99.90;;;;;;4946122;28;20023;-80
2022/07/30 01:45:16;;;;;;;5.28;1.80;;;20.80;99.90;;;;;;4956209;28;20118;-80
2022/07/30 01:47:44;;;;;;;4.30;2.03;;;20.70;99.90;;;;;;4974078;28;20077;-80
2022/07/30 01:50:12;;;;;;;5.30;1.98;;;20.50;99.90;;;;;;4935330;29;20058;-80
2022/07/30 01:52:42;;;;;;;8.75;2.30;;;20.60;99.90;;;;;;4935765;29;20094;-80
2022/07/30 01:55:11;;;;;;;5.32;1.63;;;20.50;99.90;;;;;;4935778;29;20031;-80
2022/07/30 01:57:38;;;;;;;7.07;2.10;;;20.50;99.90;;;;;;4946423;29;20038;-79
2022/07/30 02:00:06;;;;;;;8.73;2.22;;;20.50;99.90;;;;;;4937378;29;20044;-78
2022/07/30 02:02:34;;;;;;;4.47;2.03;;;20.40;99.90;;;;;;4954070;29;20023;-78
2022/07/30 02:05:01;;;;;;;4.25;2.00;;;20.40;99.90;;;;;;4954133;29;20019;-80
2022/07/30 02:07:35;;;;;;;5.85;2.08;;;20.40;99.90;;;;;;4954036;29;20102;-80
2022/07/30 02:10:06;;;;;;;5.80;1.77;;;20.50;99.90;;;;;;4937180;29;20043;-80
2022/07/30 02:12:35;;;;;;;3.35;1.88;;;20.40;99.90;;;;;;4937116;29;20035;-80
2022/07/30 02:15:37;;;;;;;6.45;2.00;;;20.40;99.90;;;;;;4954482;29;20038;-80
2022/07/30 02:18:03;;;;;;;;;;;20.50;99.90;;;;;;4857788;29;20140;-80
2022/07/30 02:20:30;;;;;;;3.90;1.77;;;20.50;99.90;;;;;;4858048;29;19991;-79
2022/07/30 02:23:05;;;;;;;2.83;1.80;;;20.40;99.90;;;;;;4857784;29;20102;-80
2022/07/30 02:25:34;;;;;;;8.95;2.20;;;20.40;99.90;;;;;;4857687;29;20037;-79
2022/07/30 02:28:04;;;;;;;7.50;1.85;;;20.40;99.90;;;;;;4842440;29;20142;-79
2022/07/30 02:30:33;;;;;;;3.75;2.13;;;20.50;99.90;;;;;;4856952;29;20036;-79
2022/07/30 02:33:04;;;;;;;4.75;2.08;;;20.40;99.90;;;;;;4857879;29;20029;-79
2022/07/30 02:35:32;;;;;;;3.75;2.00;;;20.40;99.90;;;;;;4857218;29;20041;-79
2022/07/30 02:37:59;;;;;;;6.60;2.17;;;20.40;99.90;;;;;;4857703;29;20077;-79
2022/07/30 02:40:27;;;;;;;6.57;2.00;;;20.40;99.90;;;;;;4857346;29;20042;-79
2022/07/30 02:42:53;;;;;;;6.90;2.60;;;20.40;99.90;;;;;;4857686;29;20033;-79
2022/07/30 02:45:21;;;;;;;5.75;2.15;;;20.40;99.90;;;;;;4857176;29;20029;-79
2022/07/30 02:47:59;;;;;;;6.43;1.60;;;20.40;99.90;;;;;;4857763;29;20070;-79
2022/07/30 02:50:27;;;;;;;5.03;1.95;;;20.30;99.90;;;;;;4857261;29;20037;-80
2022/07/30 02:52:54;;;;;;;11.05;2.40;;;20.20;99.90;;;;;;4874234;29;20035;-79
2022/07/30 02:55:23;;;;;;;4.80;1.83;;;20.20;99.90;;;;;;4917331;29;20391;-80
2022/07/30 02:57:51;;;;;;;7.28;2.20;;;20.30;99.90;;;;;;4934796;29;20040;-80
2022/07/30 03:00:17;;;;;;;6.68;2.10;;;20.30;99.90;;;;;;4934244;29;20028;-79
2022/07/30 03:02:44;;;;;;;5.35;2.15;;;20.30;99.90;;;;;;4934585;29;20024;-79
2022/07/30 03:05:12;;;;;;;6.68;1.90;;;20.30;99.90;;;;;;4962527;28;20023;-79
2022/07/30 03:07:39;;;;;;;4.28;2.13;;;20.30;99.90;;;;;;4953442;29;20051;-80
2022/07/30 03:10:06;;;;;;;2.53;1.58;;;20.10;99.90;;;;;;4954031;29;20098;-79
2022/07/30 03:12:33;;;;;;;4.50;1.90;;;20.10;99.90;;;;;;4949784;29;20087;-79
2022/07/30 03:14:59;;;;;;;6.63;2.10;;;20.10;99.90;;;;;;4963319;28;20023;-80
2022/07/30 03:17:27;;;;;;;4.85;1.90;;;20.20;99.90;;;;;;4972559;28;20054;-79
2022/07/30 03:19:54;;;;;;;4.72;2.20;;;20.10;99.90;;;;;;4972890;28;20082;-80
2022/07/30 03:22:23;;;;;;;5.75;2.60;;;20.20;99.90;;;;;;4956077;28;20027;-79
2022/07/30 03:24:51;;;;;;;5.30;1.92;;;20.30;99.90;;;;;;4953562;29;20079;-80
2022/07/30 03:27:17;;;;;;;5.60;1.90;;;20.30;99.90;;;;;;4953630;29;20034;-80
2022/07/30 03:29:45;;;;;;;4.20;1.77;;;20.30;99.90;;;;;;4953269;29;20023;-79
2022/07/30 03:32:12;;;;;;;4.32;2.00;;;20.30;99.90;;;;;;4935971;29;20041;-79
2022/07/30 03:34:38;;;;;;;7.60;1.95;;;20.40;99.90;;;;;;4945643;29;20020;-80
2022/07/30 03:37:05;;;;;;;10.23;2.17;;;20.40;99.90;;;;;;4934444;29;20091;-79
2022/07/30 03:39:34;;;;;;;7.05;2.30;;;20.30;99.90;;;;;;4916836;29;20059;-79
2022/07/30 03:42:01;;;;;;;3.35;2.17;;;20.40;99.90;;;;;;4917151;29;20042;-79
2022/07/30 03:44:28;;;;;;;5.07;2.28;;;20.40;99.90;;;;;;4916730;29;20454;-80
2022/07/30 03:46:56;;;;;;;3.78;2.00;;;20.40;99.90;;;;;;4934253;29;20056;-80
2022/07/30 03:49:23;;;;;;;3.53;2.00;;;20.40;99.90;;;;;;4941994;29;20415;-80
2022/07/30 03:51:50;;;;;;;5.40;1.92;;;20.40;99.90;;;;;;4952834;29;20039;-79
2022/07/30 03:54:16;;;;;;;3.95;1.92;;;20.40;99.90;;;;;;4953142;29;20102;-79
2022/07/30 03:56:42;;;;;;;5.15;1.85;;;20.40;99.90;;;;;;4953400;29;20042;-80
2022/07/30 03:59:09;;;;;;;4.43;1.77;;;20.40;99.90;;;;;;4953146;29;20503;-79
2022/07/30 04:01:35;;;;;;;4.03;1.90;;;20.40;99.90;;;;;;4955687;28;20503;-79
2022/07/30 04:04:10;;;;;;;5.50;2.25;;;20.40;99.90;;;;;;4969921;28;20119;-79
2022/07/30 04:06:39;;;;;;;4.75;1.83;;;20.40;99.90;;;;;;4938038;29;20022;-80
2022/07/30 04:09:09;;;;;;;6.07;1.77;;;20.40;99.90;;;;;;4940338;29;20670;-80
2022/07/30 04:11:35;;;;;;;7.82;2.10;;;20.30;99.90;;;;;;4937124;29;20032;-79
2022/07/30 04:14:01;;;;;;;9.55;1.90;;;20.30;99.90;;;;;;4920387;29;20087;-79
2022/07/30 04:16:46;;;;;;;5.00;1.75;;;20.30;99.90;;;;;;4937212;29;20115;-80
2022/07/30 04:19:18;;;;;;;4.85;1.90;;;20.30;99.90;;;;;;4937591;29;20016;-80
2022/07/30 04:21:46;;;;;;;4.20;1.60;;;20.20;99.90;;;;;;4937420;29;20023;-80
2022/07/30 04:24:14;;;;;;;5.90;1.92;;;20.20;99.90;;;;;;4920218;29;20028;-79
2022/07/30 04:26:40;;;;;;;7.65;1.70;;;20.10;99.90;;;;;;4919812;29;20078;-79
2022/07/30 04:29:08;;;;;;;3.65;1.58;;;20.00;99.90;;;;;;4941434;29;20031;-79
2022/07/30 04:31:35;;;;;;;8.30;1.55;;;20.10;99.90;;;;;;4956238;29;20114;-79
2022/07/30 04:34:02;;;;;;;5.68;1.80;;;20.10;99.90;;;;;;4956165;29;20027;-79
2022/07/30 04:36:30;;;;;;;3.72;1.75;;;20.10;99.90;;;;;;4955828;29;20027;-79
2022/07/30 04:38:57;;;;;;;3.28;1.33;;;20.10;99.90;;;;;;4956529;29;20033;-79
2022/07/30 04:41:22;;;;;;;3.42;1.40;;;20.10;99.90;;;;;;4955640;29;20034;-79
2022/07/30 04:43:49;;;;;;;4.82;1.45;;;20.10;99.90;;;;;;4955642;29;20481;-79
2022/07/30 04:46:14;;;;;;;2.45;1.35;;;20.10;99.90;;;;;;4956100;29;20024;-79
2022/07/30 04:48:40;;;;;;;3.00;1.08;;;20.10;99.90;;;;;;4955770;29;20098;-79
2022/07/30 04:51:12;;;;;;;7.78;1.80;;;20.10;99.90;;;;;;4955819;29;20114;-80
2022/07/30 04:53:40;;;;;;;3.15;1.20;;;20.10;99.90;;;;;;4955764;29;20499;-79
2022/07/30 04:56:06;;;;;;;2.78;1.30;;;20.10;99.90;;;;;;4955841;29;20033;-79
2022/07/30 04:58:34;;;;;;;2.55;1.20;;;20.10;99.90;;;;;;4955116;29;20034;-79
2022/07/30 05:01:01;;;;;;;6.72;1.50;;;20.00;99.90;;;;;;4955809;29;20484;-79
2022/07/30 05:03:28;;;;;;;2.40;1.10;;;20.00;99.90;;;;;;4955208;29;20023;-79
2022/07/30 05:05:56;;;;;;;2.70;1.10;;;20.00;99.90;;;;;;4955683;29;20027;-79
2022/07/30 05:08:23;;;;;;;4.90;1.33;;;20.10;99.90;;;;;;4936598;29;20050;-79
2022/07/30 05:10:49;;;;;;;3.00;1.30;;;20.10;99.90;;;;;;4935952;29;20020;-79
2022/07/30 05:13:15;;;;;;;2.20;1.15;;;20.10;99.90;;;;;;4936396;29;20488;-79
2022/07/30 05:15:43;;;;;;;3.97;1.20;;;20.10;99.90;;;;;;4935940;29;20040;-80
2022/07/30 05:18:09;;;;;;;2.08;1.20;;;20.10;99.90;;;;;;4967925;28;20491;-80
2022/07/30 05:20:35;;;;;;;4.03;1.30;;;20.20;99.90;;;;;;4949723;29;20171;-80
2022/07/30 05:23:01;;;;;;;2.50;1.30;;;20.20;99.90;;;;;;4955656;29;20694;-80
2022/07/30 05:25:27;;;;;;;3.58;1.45;;;20.20;99.90;;;;;;4954706;29;20038;-79
2022/07/30 05:27:55;;;;;;;4.68;1.35;;;20.20;99.90;;;;;;4955168;29;20027;-80
2022/07/30 05:30:21;;;;;;;6.88;1.45;;;20.20;99.90;;;;;;4939071;29;20912;-79
2022/07/30 05:32:47;;;;;;;4.57;1.70;;;20.20;99.90;;;;;;4935857;29;20030;-79
2022/07/30 05:35:12;;;;;;;5.05;1.33;;;20.20;99.90;;;;;;4936012;29;20432;-80
2022/07/30 05:37:38;;;;;;;2.78;1.40;;;20.30;99.90;;;;;;4936055;29;20457;-80
2022/07/30 05:40:04;;;;;;;3.30;1.67;;;20.30;99.90;;;;;;4935378;29;20476;-80
2022/07/30 05:42:30;;;;;;;4.75;1.63;;;20.20;99.90;;;;;;4934839;29;20028;-80
2022/07/30 05:44:56;;;;;;;4.85;1.35;;;20.30;99.90;;;;;;4935663;29;20484;-80
2022/07/30 05:47:21;;;;;;;6.85;1.63;;;20.30;99.90;;;;;;4936241;29;20436;-80
2022/07/30 05:49:47;;;;;;;4.43;1.70;;;20.30;99.90;;;;;;4935186;29;20040;-80
2022/07/30 05:52:13;;;;;;;3.08;1.40;;;20.40;99.90;;;;;;4935403;29;20454;-80
2022/07/30 05:54:39;;;;;;;5.05;1.30;;;20.30;99.90;;;;;;4935067;29;20107;-79
2022/07/30 05:57:05;;;;;;;2.05;1.27;;;20.30;99.90;;;;;;4935435;29;20123;-80
2022/07/30 05:59:30;;;;;;;4.15;1.50;;;20.40;99.90;;;;;;4935252;29;20053;-80
2022/07/30 06:01:56;;;;;;;3.70;1.20;;;20.40;99.90;;;;;;4935771;29;20472;-80
2022/07/30 06:04:22;;;;;;;2.60;1.23;;;20.50;99.90;;;;;;4935161;29;20035;-80
2022/07/30 06:06:47;;;;;;;5.40;1.50;;;20.50;99.90;;;;;;4941485;29;20099;-80
2022/07/30 06:09:13;;;;;;;4.15;1.25;;;20.50;99.90;;;;;;4918050;29;20399;-79
2022/07/30 06:11:39;;;;;;;2.72;1.40;;;20.50;99.90;;;;;;4935056;29;20030;-79
2022/07/30 06:14:05;;;;;;;2.88;1.23;;;20.50;99.90;;;;;;4925023;29;20039;-80
2022/07/30 06:16:30;;;;;;;4.45;1.48;;;20.50;99.90;;;;;;4965316;28;20031;-80
2022/07/30 06:18:56;;;;;;;2.85;1.17;;;20.60;99.90;;;;;;4954090;28;20127;-80
2022/07/30 06:21:22;;;;;;;5.95;1.10;;;20.50;99.90;;;;;;4953627;28;20050;-80
2022/07/30 06:23:48;;;;;;;5.47;1.10;;;20.60;99.90;;;;;;4972960;28;20025;-80
2022/07/30 06:26:14;;;;;;;2.38;1.10;;;20.70;99.90;;;;;;4973757;28;20442;-80
2022/07/30 06:28:40;;;;;;;3.20;1.45;;;20.80;99.90;;;;;;4973598;28;20105;-79
2022/07/30 06:31:06;;;;;;;6.40;1.55;;;20.80;99.90;;;;;;4950904;28;20054;-79
2022/07/30 06:33:32;;;;;;;3.50;1.17;;;20.80;99.90;;;;;;4954458;29;20061;-80
2022/07/30 06:35:58;;;;;;;5.57;1.38;;;20.90;99.90;;;;;;4954114;29;20220;-79
2022/07/30 06:38:23;;;;;;;2.50;1.25;;;20.90;99.90;;;;;;4931357;29;20558;-79
2022/07/30 06:40:49;;;;;;;6.57;1.33;;;21.00;99.90;;;;;;4934720;29;20028;-79
2022/07/30 06:43:15;;;;;;;3.72;1.00;;;20.80;99.90;;;;;;4935176;29;20074;-79
2022/07/30 06:45:40;;;;;;;3.53;1.13;;;20.90;99.90;;;;;;4943225;29;20035;-79
2022/07/30 06:48:06;;;;;;;2.58;1.15;;;20.90;99.90;;;;;;4953853;29;20078;-79
2022/07/30 06:50:34;;;;;;;5.50;1.20;;;20.90;99.90;;;;;;4953871;29;20094;-79
2022/07/30 06:52:59;;;;;;;2.88;1.08;;;21.00;99.90;;;;;;4936472;29;20038;-79
2022/07/30 06:55:25;;;;;;;3.35;1.10;;;21.00;99.90;;;;;;4936752;29;20027;-79
2022/07/30 06:57:50;;;;;;;2.60;1.00;;;21.10;99.90;;;;;;4951535;28;20407;-79
2022/07/30 07:00:16;;;;;;;1.75;0.90;;;21.30;99.90;;;;;;4931053;29;20533;-79
2022/07/30 07:02:42;;;;;;;1.75;0.93;;;21.20;99.90;;;;;;4953493;29;20039;-79
2022/07/30 07:05:08;;;;;;;3.28;1.30;;;21.30;99.90;;;;;;4953833;29;20020;-79
2022/07/30 07:07:34;;;;;;;5.82;0.90;;;21.30;99.90;;;;;;4953048;29;20090;-79
2022/07/30 07:10:00;;;;;;;2.15;0.90;;;21.30;99.90;;;;;;4953701;29;20106;-79
2022/07/30 07:12:26;;;;;;;1.95;0.82;;;21.10;99.90;;;;;;4941300;29;20031;-79
2022/07/30 07:14:51;;;;;;;1.80;1.00;;;21.30;99.90;;;;;;4953555;28;20027;-81
2022/07/30 07:17:17;;;;;;;5.90;0.85;;;21.30;99.90;;;;;;4973785;28;20042;-82
2022/07/30 07:19:43;;;;;;;7.45;1.42;;;21.30;99.90;;;;;;4973448;28;20116;-82
2022/07/30 07:22:08;;;;;;;2.47;0.90;;;21.50;99.90;;;;;;4972985;28;20031;-82
2022/07/30 07:24:34;;;;;;;2.40;1.15;;;21.60;99.90;;;;;;4973715;28;20087;-82
2022/07/30 07:26:59;;;;;;;2.83;1.10;;;21.70;99.90;;;;;;4945144;29;20020;-83
2022/07/30 07:29:25;;;;;;;2.88;1.08;;;21.80;99.90;;;;;;4951056;29;20034;-82
2022/07/30 07:31:51;;;;;;;1.55;0.90;;;21.80;99.90;;;;;;4934960;29;20118;-82
2022/07/30 07:34:16;;;;;;;3.58;1.17;;;21.90;99.90;;;;;;4935250;29;20066;-83
2022/07/30 07:36:42;;;;;;;4.93;1.05;;;21.80;99.90;;;;;;4947697;29;20038;-83
2022/07/30 07:39:08;;;;;;;3.97;1.17;;;21.90;99.90;;;;;;4952840;29;20028;-80
2022/07/30 07:41:36;;;;;;;3.25;1.00;;;22.00;99.90;;;;;;4937931;29;20115;-79
2022/07/30 07:44:02;;;;;;;7.25;1.35;;;22.10;99.90;;;;;;4974376;28;20045;-81
2022/07/30 07:46:28;;;;;;;2.97;1.08;;;22.20;99.90;;;;;;4972198;28;20475;-81
2022/07/30 07:48:54;;;;;;;5.25;1.13;;;22.30;99.90;;;;;;4955710;28;20026;-81
2022/07/30 07:51:20;;;;;;;2.67;1.10;;;22.40;99.90;;;;;;4975545;28;20035;-81
2022/07/30 07:53:46;;;;;;;5.07;1.10;;;22.50;99.90;;;;;;4980235;28;20015;-83
2022/07/30 07:56:12;;;;;;;9.60;1.02;;;22.60;99.90;;;;;;4950413;29;20032;-85
2022/07/30 07:58:39;;;;;;;1.63;1.13;;;22.50;99.90;;;;;;4957375;29;20503;-84
2022/07/30 08:01:07;;;;;;;6.32;0.98;;;22.70;99.90;;;;;;4949262;29;20038;-84
2022/07/30 08:03:32;;;;;;;4.55;0.95;;;22.80;99.90;;;;;;4932717;28;20092;-84
2022/07/30 08:06:00;;;;;;;2.35;0.90;;;22.80;99.90;;;;;;4976084;28;20035;-83
2022/07/30 08:08:26;;;;;;;2.30;1.17;;;22.70;99.90;;;;;;4961669;28;20695;-84
2022/07/30 08:10:51;;;;;;;6.88;1.10;;;22.90;99.90;;;;;;4977003;28;20022;-84
2022/07/30 08:13:17;;;;;;;2.30;0.85;;;23.10;99.90;;;;;;4976431;28;20027;-84
2022/07/30 08:15:43;;;;;;;2.75;1.00;;;23.10;99.90;;;;;;4973172;28;20065;-84
2022/07/30 08:18:09;;;;;;;5.75;1.00;;;23.20;99.90;;;;;;4956145;29;20027;-86
2022/07/30 08:20:36;;;;;;;1.10;0.60;;;23.40;99.90;;;;;;4969737;28;20058;-84
2022/07/30 08:23:03;;;;;;;5.28;1.00;;;23.20;99.90;;;;;;4958737;28;20458;-84
2022/07/30 08:25:29;;;;;;;3.30;0.95;;;23.20;99.90;;;;;;4959214;28;20027;-84
2022/07/30 08:27:54;;;;;;;2.30;0.88;;;23.20;99.90;;;;;;4973802;28;20026;-82
2022/07/30 08:30:21;;;;;;;5.28;1.00;;;23.50;99.90;;;;;;4971235;28;20023;-82
2022/07/30 08:32:46;;;;;;;4.32;0.95;;;23.60;99.90;;;;;;4973328;28;20078;-81
2022/07/30 08:35:12;;;;;;;3.85;1.30;;;23.70;99.90;;;;;;4975428;28;20066;-81
2022/07/30 08:37:39;;;;;;;3.00;1.20;;;23.70;99.90;;;;;;4959556;28;20117;-82
2022/07/30 08:40:06;;;;;;;1.30;0.82;;;23.90;99.90;;;;;;4958766;28;20031;-82
2022/07/30 08:42:34;;;;;;;5.15;1.30;;;24.00;99.90;;;;;;4958505;28;20402;-82
2022/07/30 08:45:00;;;;;;;1.33;0.70;;;24.00;99.90;;;;;;4975976;28;20141;-83
2022/07/30 08:47:33;;;;;;;2.40;0.90;;;24.30;99.90;;;;;;4964405;28;20106;-82
2022/07/30 08:50:03;;;;;;;2.78;0.90;;;24.90;99.90;;;;;;4939351;29;20044;-83
2022/07/30 08:52:34;;;;;;;1.65;0.65;;;25.20;99.90;;;;;;4956367;28;20027;-82
2022/07/30 08:55:00;;;;;;;3.75;1.20;;;25.40;99.90;;;;;;4956360;29;20035;-75
2022/07/30 08:57:29;;;;;;;1.73;0.80;;;25.70;99.90;;;;;;4956215;29;20027;-83
2022/07/30 08:59:57;;;;;;;1.67;0.90;;;25.90;99.90;;;;;;4956611;29;20114;-83
2022/07/30 09:02:22;;;;;;;4.35;0.85;;;26.20;99.70;;;;;;4944353;28;20030;-83
2022/07/30 09:04:48;;;;;;;2.53;0.90;;;26.40;99.30;;;;;;4975446;28;20033;-83
2022/07/30 09:07:14;;;;;;;3.63;0.80;;;26.60;98.10;;;;;;4965122;28;20118;-84
2022/07/30 09:09:40;;;;;;;2.67;0.80;;;26.70;96.70;;;;;;4958179;28;20057;-83
2022/07/30 09:12:36;;;;;;;1.83;0.70;;;26.90;96.50;;;;;;4967239;28;20027;-83
2022/07/30 09:15:10;;;;;;;1.60;0.52;;;27.00;96.10;;;;;;4952102;28;20053;-83
2022/07/30 09:17:50;;;;;;;1.67;0.57;;;27.20;92.40;;;;;;4967981;28;20019;-83
2022/07/30 09:20:16;;;;;;;1.00;0.65;;;27.30;93.40;;;;;;4919685;29;20059;-83
2022/07/30 09:22:47;;;;;;;1.73;0.77;;;27.50;92.50;;;;;;4967071;28;20030;-83
2022/07/30 09:25:13;;;;;;;6.70;0.80;;;27.70;92.10;;;;;;4961026;28;20039;-83
2022/07/30 09:27:47;;;;;;;4.57;0.63;;;27.70;91.80;;;;;;4946724;28;20269;-83
2022/07/30 09:30:13;;;;;;;1.30;0.70;;;27.80;91.20;;;;;;4975099;28;20023;-83
2022/07/30 09:32:54;;;;;;;1.60;0.68;;;27.90;90.40;;;;;;4968159;28;20506;-83
2022/07/30 09:35:21;;;;;;;2.13;0.73;;;28.00;90.20;;;;;;4974887;28;20109;-83
2022/07/30 09:37:56;;;;;;;1.45;0.90;;;28.10;88.90;;;;;;4938286;29;20036;-83
2022/07/30 09:40:22;;;;;;;2.75;0.70;;;28.00;89.00;;;;;;4937654;28;20032;-83
2022/07/30 09:42:59;;;;;;;2.58;0.82;;;28.30;89.40;;;;;;4936529;29;20456;-83
2022/07/30 09:45:25;;;;;;;2.97;0.80;;;28.40;87.40;;;;;;4943639;29;20054;-83
2022/07/30 09:47:51;;;;;;;0.82;0.63;;;28.40;84.70;;;;;;4970100;28;20483;-83
2022/07/30 09:50:18;;;;;;;2.28;0.70;;;28.80;85.60;;;;;;4974454;28;20019;-82
2022/07/30 09:52:46;;;;;;;8.20;0.88;;;28.70;82.40;;;;;;4967883;28;20023;-84
2022/07/30 09:55:13;;;;;;;2.08;0.88;;;28.40;85.20;;;;;;4927395;28;20028;-82
2022/07/30 09:58:00;;;;;;;3.03;0.90;;;28.20;85.70;;;;;;4965136;28;20082;-85
2022/07/30 10:00:28;;;;;;;2.65;0.85;;;28.10;86.50;;;;;;4965921;28;20038;-79
2022/07/30 10:02:54;;;;;;;2.47;1.00;;;28.60;85.20;;;;;;4956011;28;20107;-84
2022/07/30 10:05:21;;;;;;;3.67;0.82;;;28.40;83.10;;;;;;4937892;29;20027;-83
2022/07/30 10:08:08;;;;;;;2.05;1.05;;;27.30;88.20;;;;;;4958084;28;20047;-79
2022/07/30 10:10:34;;;;;;;1.90;0.77;;;27.70;88.40;;;;;;4970138;28;20372;-78
2022/07/30 10:13:02;;;;;;;3.53;1.10;;;28.30;85.40;;;;;;4974220;28;20038;-81
2022/07/30 10:15:31;;;;;;;8.05;1.00;;;29.00;83.20;;;;;;4956376;28;20050;-80
2022/07/30 10:17:58;;;;;;;6.65;1.10;;;29.30;80.10;;;;;;4974618;28;20368;-80
2022/07/30 10:20:25;;;;;;;2.42;0.98;;;28.50;81.40;;;;;;4971900;28;20019;-80
2022/07/30 10:22:51;;;;;;;1.63;0.88;;;27.90;85.00;;;;;;4966714;28;20030;-79
2022/07/30 10:25:21;;;;;;;8.25;1.30;;;27.50;87.90;;;;;;4970244;28;20022;-81
2022/07/30 10:27:48;;;;;;;2.95;0.95;;;28.60;86.20;;;;;;4942486;28;20019;-78
2022/07/30 10:30:14;;;;;;;5.57;1.40;;;29.00;79.20;;;;;;4973417;28;20097;-79
2022/07/30 10:32:41;;;;;;;2.90;1.10;;;27.80;84.10;;;;;;4956393;28;20118;-79
2022/07/30 10:35:08;;;;;;;2.47;1.10;;;27.20;85.60;;;;;;4972607;28;20067;-80
2022/07/30 10:37:40;;;;;;;3.63;1.02;;;26.90;88.90;;;;;;4973685;28;20030;-80
2022/07/30 10:40:17;;;;;;;7.10;1.30;;;27.90;85.40;;;;;;4974313;28;20022;-73
2022/07/30 10:43:28;;;;;;;62.30;3.58;;;28.40;80.90;;;;;;4958321;28;20495;-86
2022/07/30 10:46:38;;;;;;;64.03;3.25;;;28.70;81.00;;;;;;4965238;28;20022;-75
2022/07/30 10:49:22;;;;;;;9.00;1.15;;;29.10;79.70;;;;;;4949733;28;20118;-75
2022/07/30 10:51:49;;;;;;;2.92;1.20;;;27.90;84.50;;;;;;4964463;28;20033;-74
2022/07/30 10:54:33;;;;;;;3.70;1.10;;;27.40;87.30;;;;;;4964826;28;20041;-75
2022/07/30 10:57:04;;;;;;;4.63;1.20;;;27.90;85.90;;;;;;4956258;28;20505;-75
2022/07/30 10:59:49;;;;;;;2.77;1.40;;;28.50;83.00;;;;;;4963660;28;20034;-76
2022/07/30 11:02:16;;;;;;;6.13;1.27;;;28.70;79.20;;;;;;4966437;28;20031;-81
2022/07/30 11:04:42;;;;;;;3.13;1.20;;;29.20;77.80;;;;;;4971531;28;20026;-78
2022/07/30 11:07:23;;;;;;;2.72;1.27;;;29.20;75.70;;;;;;4969678;28;20061;-82
2022/07/30 11:09:51;;;;;;;1.92;0.93;;;29.60;75.10;;;;;;4966886;28;20015;-81
2022/07/30 11:12:44;;;;;;;5.63;1.30;;;30.00;74.60;;;;;;4961970;28;20532;-81
2022/07/30 11:15:14;;;;;;;3.60;1.10;;;29.70;72.60;;;;;;4946423;28;20033;-80
2022/07/30 11:18:03;;;;;;;1.90;0.98;;;30.40;72.60;;;;;;4974045;28;20058;-81
2022/07/30 11:20:30;;;;;;;2.63;0.90;;;29.20;72.70;;;;;;4976640;28;20494;-87
2022/07/30 11:23:30;;;;;;;1.77;1.10;;;28.90;75.50;;;;;;4959132;28;20395;-83
2022/07/30 11:25:55;;;;;;;3.90;1.10;;;29.60;72.40;;;;;;4975638;28;20074;-80
2022/07/30 11:28:45;;;;;;;2.60;0.95;;;29.90;70.60;;;;;;4976491;28;20026;-77
2022/07/30 11:31:30;;;;;;;5.82;1.20;;;30.20;69.60;;;;;;4950827;28;20028;-84
2022/07/30 11:34:17;;;;;;;4.88;1.17;;;30.70;67.60;;;;;;4939904;29;20031;-79
2022/07/30 11:37:03;;;;;;;1.67;0.80;;;30.20;68.30;;;;;;4941320;28;20484;-80
2022/07/30 11:39:54;;;;;;;2.88;1.15;;;29.80;68.90;;;;;;4938951;29;20071;-80
2022/07/30 11:42:30;;;;;;;1.98;1.10;;;29.40;72.60;;;;;;4962272;28;20035;-80
2022/07/30 11:45:14;;;;;;;6.22;1.30;;;30.30;70.10;;;;;;4958295;28;20031;-80
2022/07/30 11:47:48;;;;;;;3.90;1.00;;;30.40;67.60;;;;;;4977211;28;20050;-81
2022/07/30 11:50:20;;;;;;;5.47;0.90;;;30.40;67.50;;;;;;4977524;28;20023;-81
2022/07/30 11:52:53;;;;;;;1.67;1.10;;;29.50;69.60;;;;;;4975245;28;20026;-79
2022/07/30 11:55:31;;;;;;;2.70;0.95;;;29.90;70.70;;;;;;4977031;28;20438;-79
2022/07/30 11:57:58;;;;;;;1.88;0.98;;;30.50;66.30;;;;;;4976909;28;20022;-79
2022/07/30 12:00:24;;;;;;;2.63;1.17;;;30.90;65.00;;;;;;4976907;28;20034;-80
2022/07/30 12:02:50;;;;;;;2.63;1.35;;;31.00;64.50;;;;;;4966578;28;20038;-80
2022/07/30 12:05:24;;;;;;;4.78;1.25;;;31.40;61.50;;;;;;4957344;29;20037;-80
2022/07/30 12:07:50;;;;;;;4.90;1.30;;;31.60;60.30;;;;;;4964465;28;20106;-80
2022/07/30 12:10:18;;;;;;;2.00;0.98;;;31.60;61.30;;;;;;4956926;29;20046;-80
2022/07/30 12:12:45;;;;;;;2.67;1.15;;;30.20;62.20;;;;;;4955722;29;20031;-80
2022/07/30 12:15:37;;;;;;;7.40;1.48;;;29.80;65.50;;;;;;4957064;28;20039;-80
2022/07/30 12:18:02;;;;;;;;;;;30.50;63.20;;;;;;4957476;28;20491;-80
2022/07/30 12:20:28;;;;;;;6.07;0.90;;;30.40;63.50;;;;;;4956422;28;19952;-80
2022/07/30 12:22:55;;;;;;;2.53;1.00;;;29.50;65.70;;;;;;4955824;29;20045;-80
2022/07/30 12:25:21;;;;;;;2.40;1.00;;;29.60;68.10;;;;;;4942368;28;20022;-80
2022/07/30 12:27:48;;;;;;;2.67;1.02;;;29.70;65.50;;;;;;4957444;28;20027;-80
2022/07/30 12:30:16;;;;;;;2.35;1.30;;;30.20;64.10;;;;;;4956160;28;20094;-80
2022/07/30 12:32:45;;;;;;;3.85;1.00;;;30.30;62.90;;;;;;4956791;28;20039;-80
2022/07/30 12:35:11;;;;;;;3.08;1.23;;;30.70;61.40;;;;;;4956811;28;20027;-80
2022/07/30 12:37:37;;;;;;;2.45;1.00;;;31.00;59.50;;;;;;4956230;28;20034;-80
2022/07/30 12:40:15;;;;;;;1.60;0.85;;;30.90;59.30;;;;;;4956322;29;20027;-80
2022/07/30 12:42:54;;;;;;;4.15;1.30;;;31.30;58.70;;;;;;4955741;29;20409;-78
2022/07/30 12:45:31;;;;;;;3.85;1.38;;;31.30;57.60;;;;;;4956390;28;20019;-78
2022/07/30 12:47:58;;;;;;;4.60;1.00;;;31.40;57.00;;;;;;4956244;28;20027;-78
2022/07/30 12:50:25;;;;;;;2.83;1.10;;;31.80;56.70;;;;;;4956019;28;20538;-78
2022/07/30 12:52:52;;;;;;;5.00;1.10;;;31.30;56.70;;;;;;4952478;28;20028;-78
2022/07/30 12:55:26;;;;;;;2.83;1.20;;;30.90;57.20;;;;;;4954504;28;20082;-78
2022/07/30 12:58:03;;;;;;;3.50;1.10;;;30.10;59.00;;;;;;4953758;28;20038;-78